createdAt,value
2022-10-17T00:00:16.401Z,13.56
2022-10-17T00:02:42.772Z,13.64
2022-10-17T00:05:09.299Z,13.57
2022-10-17T00:07:35.655Z,13.64
2022-10-17T00:10:02.051Z,13.63
2022-10-17T00:12:28.521Z,13.60
2022-10-17T00:14:54.911Z,13.66
2022-10-17T00:17:21.402Z,13.71
2022-10-17T00:19:47.782Z,13.61
2022-10-17T00:22:14.326Z,13.69
2022-10-17T00:24:40.761Z,13.76
2022-10-17T00:27:07.155Z,13.75
2022-10-17T00:29:33.633Z,13.76
2022-10-17T00:31:59.994Z,13.75
2022-10-17T00:34:29.678Z,13.77
2022-10-17T00:36:56.047Z,13.83
2022-10-17T00:39:22.502Z,13.82
2022-10-17T00:41:48.861Z,13.73
2022-10-17T00:44:30.402Z,13.85
2022-10-17T00:47:00.124Z,13.80
2022-10-17T00:49:28.754Z,13.80
2022-10-17T00:52:01.946Z,13.77
2022-10-17T00:54:33.434Z,13.79
2022-10-17T00:57:01.176Z,13.76
2022-10-17T00:59:28.375Z,13.79
2022-10-17T01:02:05.787Z,13.82
2022-10-17T01:04:32.475Z,13.71
2022-10-17T01:06:59.007Z,13.80
2022-10-17T01:09:26.394Z,13.82
2022-10-17T01:12:33.867Z,13.89
2022-10-17T01:15:06.614Z,13.90
2022-10-17T01:17:44.159Z,13.90
2022-10-17T01:20:49.148Z,13.98
2022-10-17T01:23:27.090Z,13.95
2022-10-17T01:26:21.241Z,13.98
2022-10-17T01:29:05.965Z,14.02
2022-10-17T01:31:39.993Z,14.00
2022-10-17T01:34:44.213Z,13.98
2022-10-17T01:37:34.011Z,14.05
2022-10-17T01:40:10.504Z,14.02
2022-10-17T01:42:48.996Z,14.07
2022-10-17T01:45:23.755Z,14.01
2022-10-17T01:47:52.690Z,14.06
2022-10-17T01:50:28.434Z,14.08
2022-10-17T01:53:33.688Z,14.15
2022-10-17T01:56:03.735Z,14.08
2022-10-17T01:58:50.078Z,14.17
2022-10-17T02:01:18.485Z,14.08
2022-10-17T02:03:46.378Z,14.12
2022-10-17T02:06:12.764Z,14.13
2022-10-17T02:08:45.060Z,14.20
2022-10-17T02:11:16.512Z,14.20
2022-10-17T02:13:49.017Z,14.21
2022-10-17T02:16:42.549Z,14.20
2022-10-17T02:19:39.203Z,14.20
2022-10-17T02:22:05.544Z,14.24
2022-10-17T02:24:45.593Z,14.24
2022-10-17T02:27:23.680Z,14.20
2022-10-17T02:29:57.605Z,14.21
2022-10-17T02:32:30.960Z,14.20
2022-10-17T02:35:00.637Z,14.23
2022-10-17T02:37:30.204Z,14.23
2022-10-17T02:39:59.507Z,14.24
2022-10-17T02:42:27.565Z,14.28
2022-10-17T02:44:58.211Z,14.28
2022-10-17T02:47:34.883Z,14.25
2022-10-17T02:50:01.248Z,14.24
2022-10-17T02:52:45.388Z,14.33
2022-10-17T02:55:32.701Z,14.36
2022-10-17T02:58:03.847Z,14.33
2022-10-17T03:00:31.798Z,14.30
2022-10-17T03:02:58.300Z,14.34
2022-10-17T03:05:29.617Z,14.38
2022-10-17T03:07:56.955Z,14.39
2022-10-17T03:10:23.356Z,14.39
2022-10-17T03:12:49.711Z,14.40
2022-10-17T03:15:16.117Z,14.38
2022-10-17T03:17:42.721Z,14.42
2022-10-17T03:20:09.684Z,14.38
2022-10-17T03:22:36.066Z,14.45
2022-10-17T03:25:02.507Z,14.47
2022-10-17T03:27:32.188Z,14.42
2022-10-17T03:29:58.836Z,14.43
2022-10-17T03:32:25.319Z,14.34
2022-10-17T03:34:51.779Z,14.32
2022-10-17T03:37:18.209Z,14.38
2022-10-17T03:39:44.590Z,14.38
2022-10-17T03:42:10.959Z,14.33
2022-10-17T03:44:37.361Z,14.28
2022-10-17T03:47:03.788Z,14.20
2022-10-17T03:49:30.191Z,14.22
2022-10-17T03:51:56.598Z,14.18
2022-10-17T03:54:22.962Z,14.19
2022-10-17T03:56:49.437Z,14.06
2022-10-17T03:59:16.457Z,14.10
2022-10-17T04:01:43.323Z,13.97
2022-10-17T04:04:10.162Z,13.98
2022-10-17T04:06:37.777Z,13.98
2022-10-17T04:09:05.264Z,13.88
2022-10-17T04:11:31.824Z,13.91
2022-10-17T04:13:59.622Z,13.86
2022-10-17T04:16:26.713Z,13.85
2022-10-17T04:18:58.875Z,13.81
2022-10-17T04:21:27.383Z,13.83
2022-10-17T04:23:59.227Z,13.82
2022-10-17T04:26:25.736Z,13.76
2022-10-17T04:28:52.481Z,13.74
2022-10-17T04:31:19.004Z,13.79
2022-10-17T04:33:50.013Z,13.80
2022-10-17T04:36:18.774Z,13.77
2022-10-17T04:38:45.417Z,13.80
2022-10-17T04:41:14.397Z,13.81
2022-10-17T04:43:42.726Z,13.84
2022-10-17T04:46:14.388Z,13.87
2022-10-17T04:48:40.953Z,13.87
2022-10-17T04:51:20.624Z,13.87
2022-10-17T04:53:49.799Z,13.83
2022-10-17T04:56:18.932Z,13.88
2022-10-17T04:58:46.366Z,13.89
2022-10-17T05:01:15.130Z,13.94
2022-10-17T05:03:41.975Z,13.92
2022-10-17T05:06:11.333Z,13.95
2022-10-17T05:08:38.180Z,13.94
2022-10-17T05:11:05.870Z,13.89
2022-10-17T05:13:33.188Z,13.96
2022-10-17T05:16:00.884Z,13.93
2022-10-17T05:18:28.722Z,13.90
2022-10-17T05:20:55.450Z,13.86
2022-10-17T05:23:21.893Z,13.85
2022-10-17T05:25:48.344Z,13.85
2022-10-17T05:28:14.682Z,13.85
2022-10-17T05:30:41.046Z,13.81
2022-10-17T05:33:07.436Z,13.79
2022-10-17T05:35:33.802Z,13.77
2022-10-17T05:38:00.581Z,13.73
2022-10-17T05:40:27.022Z,13.71
2022-10-17T05:42:53.472Z,13.61
2022-10-17T05:45:19.858Z,13.70
2022-10-17T05:47:46.305Z,13.69
2022-10-17T05:50:13.153Z,13.64
2022-10-17T05:52:40.559Z,13.68
2022-10-17T05:55:08.973Z,13.63
2022-10-17T05:57:35.541Z,13.61
2022-10-17T06:00:02.168Z,13.65
2022-10-17T06:02:28.956Z,13.64
2022-10-17T06:04:55.669Z,13.57
2022-10-17T06:07:22.050Z,13.66
2022-10-17T06:09:48.434Z,13.70
2022-10-17T06:12:14.861Z,13.67
2022-10-17T06:14:41.245Z,13.76
2022-10-17T06:17:09.998Z,13.77
2022-10-17T06:19:41.377Z,13.80
2022-10-17T06:22:08.132Z,13.80
2022-10-17T06:24:34.513Z,13.84
2022-10-17T06:27:00.862Z,13.90
2022-10-17T06:29:27.216Z,13.91
2022-10-17T06:31:54.339Z,13.88
2022-10-17T06:34:21.114Z,13.98
2022-10-17T06:36:47.683Z,14.02
2022-10-17T06:39:14.313Z,14.08
2022-10-17T06:41:44.559Z,14.14
2022-10-17T06:44:11.528Z,14.28
2022-10-17T06:46:40.588Z,14.19
2022-10-17T06:49:07.616Z,14.26
2022-10-17T06:51:37.879Z,14.26
2022-10-17T06:54:04.414Z,14.48
2022-10-17T06:56:30.847Z,14.42
2022-10-17T06:58:57.262Z,14.42
2022-10-17T07:01:23.647Z,14.56
2022-10-17T07:03:50.132Z,14.62
2022-10-17T07:06:17.945Z,14.69
2022-10-17T07:08:45.619Z,14.75
2022-10-17T07:11:14.257Z,14.83
2022-10-17T07:13:41.029Z,14.92
2022-10-17T07:16:08.305Z,14.99
2022-10-17T07:18:34.936Z,14.99
2022-10-17T07:21:01.458Z,15.16
2022-10-17T07:23:28.236Z,15.27
2022-10-17T07:26:03.400Z,15.33
2022-10-17T07:28:29.940Z,15.48
2022-10-17T07:30:56.346Z,15.49
2022-10-17T07:33:22.854Z,15.70
2022-10-17T07:35:49.522Z,15.79
2022-10-17T07:38:15.896Z,15.81
2022-10-17T07:40:42.485Z,16.03
2022-10-17T07:43:08.869Z,16.10
2022-10-17T07:45:35.207Z,16.18
2022-10-17T07:48:01.585Z,16.29
2022-10-17T07:50:29.130Z,16.32
2022-10-17T07:52:55.487Z,16.40
2022-10-17T07:55:21.927Z,16.52
2022-10-17T07:57:48.254Z,16.59
2022-10-17T08:00:14.826Z,16.63
2022-10-17T08:02:41.268Z,16.80
2022-10-17T08:05:08.060Z,16.96
2022-10-17T08:07:34.440Z,17.09
2022-10-17T08:10:00.933Z,17.29
2022-10-17T08:12:27.748Z,17.49
2022-10-17T08:14:54.552Z,17.60
2022-10-17T08:17:21.591Z,17.78
2022-10-17T08:19:48.025Z,17.95
2022-10-17T08:22:14.413Z,18.09
2022-10-17T08:24:42.711Z,18.21
2022-10-17T08:27:11.498Z,18.26
2022-10-17T08:29:39.151Z,18.47
2022-10-17T08:32:08.984Z,18.56
2022-10-17T08:34:36.443Z,18.65
2022-10-17T08:37:02.898Z,18.83
2022-10-17T08:39:29.456Z,18.86
2022-10-17T08:42:03.334Z,19.05
2022-10-17T08:44:35.786Z,19.16
2022-10-17T08:47:06.520Z,19.26
2022-10-17T08:49:52.231Z,19.36
2022-10-17T08:52:43.618Z,19.46
2022-10-17T08:55:21.090Z,19.58
2022-10-17T08:57:48.473Z,19.68
2022-10-17T09:00:19.491Z,19.69
2022-10-17T09:02:48.817Z,19.90
2022-10-17T09:05:28.339Z,20.07
2022-10-17T09:08:28.808Z,20.24
2022-10-17T09:11:09.859Z,20.29
2022-10-17T09:14:06.208Z,20.51
2022-10-17T09:16:48.970Z,20.59
2022-10-17T09:19:26.852Z,20.77
2022-10-17T09:22:04.319Z,20.88
2022-10-17T09:24:41.667Z,21.01
2022-10-17T09:27:26.069Z,21.13
2022-10-17T09:30:17.168Z,21.41
2022-10-17T09:32:57.879Z,21.48
2022-10-17T09:35:26.698Z,21.55
2022-10-17T09:37:54.135Z,21.63
2022-10-17T09:40:32.292Z,21.69
2022-10-17T09:43:01.376Z,21.85
2022-10-17T09:45:33.589Z,22.05
2022-10-17T09:48:05.973Z,22.26
2022-10-17T09:50:34.012Z,22.45
2022-10-17T09:53:08.520Z,22.68
2022-10-17T09:55:42.513Z,22.94
2022-10-17T09:58:10.780Z,23.08
2022-10-17T10:00:40.236Z,23.37
2022-10-17T10:03:12.921Z,23.65
2022-10-17T10:05:40.526Z,23.79
2022-10-17T10:08:17.815Z,23.97
2022-10-17T10:10:45.183Z,24.08
2022-10-17T10:13:14.442Z,24.23
2022-10-17T10:15:43.547Z,24.35
2022-10-17T10:18:25.053Z,24.49
2022-10-17T10:21:21.390Z,24.54
2022-10-17T10:24:13.192Z,24.57
2022-10-17T10:26:45.922Z,24.48
2022-10-17T10:29:35.769Z,24.58
2022-10-17T10:32:26.197Z,24.55
2022-10-17T10:34:57.494Z,24.48
2022-10-17T10:37:41.793Z,24.54
2022-10-17T10:40:18.516Z,24.51
2022-10-17T10:42:48.912Z,24.47
2022-10-17T10:45:49.368Z,24.43
2022-10-17T10:48:20.583Z,24.45
2022-10-17T10:50:49.461Z,24.32
2022-10-17T10:53:56.898Z,24.40
2022-10-17T10:56:34.115Z,24.27
2022-10-17T10:59:10.059Z,24.26
2022-10-17T11:02:20.975Z,24.26
2022-10-17T11:04:54.883Z,24.07
2022-10-17T11:07:33.645Z,23.99
2022-10-17T11:10:09.220Z,23.90
2022-10-17T11:12:41.638Z,23.77
2022-10-17T11:15:49.578Z,23.84
2022-10-17T11:18:33.239Z,23.69
2022-10-17T11:21:13.398Z,23.64
2022-10-17T11:23:53.175Z,23.61
2022-10-17T11:26:26.720Z,23.57
2022-10-17T11:28:54.599Z,23.57
2022-10-17T11:31:23.553Z,23.59
2022-10-17T11:33:57.153Z,23.63
2022-10-17T11:36:30.132Z,23.65
2022-10-17T11:39:08.984Z,23.65
2022-10-17T11:41:42.940Z,23.70
2022-10-17T11:44:27.340Z,23.69
2022-10-17T11:47:35.856Z,23.74
2022-10-17T11:53:13.367Z,23.58
2022-10-17T11:55:41.762Z,23.56
2022-10-17T11:58:23.370Z,23.55
2022-10-17T12:01:05.027Z,23.46
2022-10-17T12:03:41.327Z,23.40
2022-10-17T12:06:29.342Z,23.37
2022-10-17T12:09:27.592Z,23.26
2022-10-17T12:11:59.814Z,22.98
2022-10-17T12:14:47.530Z,22.88
2022-10-17T12:17:38.937Z,22.61
2022-10-17T12:20:21.175Z,22.38
2022-10-17T12:22:49.542Z,22.03
2022-10-17T12:25:32.686Z,21.86
2022-10-17T12:28:30.798Z,21.62
2022-10-17T12:31:05.719Z,21.32
2022-10-17T12:34:00.136Z,21.22
2022-10-17T12:36:26.429Z,21.05
2022-10-17T12:39:01.610Z,20.98
2022-10-17T12:41:40.232Z,20.90
2022-10-17T12:44:15.704Z,20.86
2022-10-17T12:46:51.847Z,20.82
2022-10-17T12:49:39.420Z,20.77
2022-10-17T12:52:17.658Z,20.74
2022-10-17T12:55:00.227Z,20.63
2022-10-17T12:58:00.264Z,20.69
2022-10-17T13:00:37.841Z,20.65
2022-10-17T13:03:18.319Z,20.59
2022-10-17T13:05:57.496Z,20.49
2022-10-17T13:08:38.786Z,20.48
2022-10-17T13:11:06.759Z,20.37
2022-10-17T13:13:42.422Z,20.34
2022-10-17T13:16:09.194Z,20.14
2022-10-17T13:18:35.941Z,20.19
2022-10-17T13:21:14.483Z,20.15
2022-10-17T13:23:41.097Z,19.94
2022-10-17T13:26:10.217Z,19.93
2022-10-17T13:28:39.319Z,19.79
2022-10-17T13:31:06.456Z,19.71
2022-10-17T13:33:39.204Z,19.74
2022-10-17T13:36:15.814Z,19.70
2022-10-17T13:38:43.238Z,19.57
2022-10-17T13:41:34.931Z,19.63
2022-10-17T13:44:07.558Z,19.59
2022-10-17T13:46:38.458Z,19.61
2022-10-17T13:49:30.907Z,19.58
2022-10-17T13:51:58.427Z,19.57
2022-10-17T13:54:42.814Z,19.58
2022-10-17T13:57:23.378Z,18.93
2022-10-17T13:59:54.523Z,19.10
2022-10-17T14:02:31.909Z,18.90
2022-10-17T14:05:17.141Z,19.46
2022-10-17T14:08:11.793Z,19.36
2022-10-17T14:10:45.707Z,19.13
2022-10-17T14:13:51.717Z,18.96
2022-10-17T14:17:00.623Z,19.28
2022-10-17T14:20:16.099Z,19.55
2022-10-17T14:23:04.449Z,19.03
2022-10-17T14:25:53.176Z,19.10
2022-10-17T14:28:28.685Z,19.11
2022-10-17T14:31:36.894Z,19.16
2022-10-17T14:34:05.487Z,19.62
2022-10-17T14:36:42.709Z,19.14
2022-10-17T14:39:29.947Z,19.33
2022-10-17T14:42:04.268Z,19.17
2022-10-17T14:44:50.511Z,19.45
2022-10-17T14:47:50.270Z,19.28
2022-10-17T14:50:22.466Z,19.79
2022-10-17T14:53:26.463Z,19.73
2022-10-17T14:56:05.647Z,19.47
2022-10-17T14:58:35.303Z,19.56
2022-10-17T15:01:28.248Z,19.33
2022-10-17T15:04:02.947Z,19.25
2022-10-17T15:06:47.118Z,19.11
2022-10-17T15:09:20.686Z,19.07
2022-10-17T15:11:48.137Z,19.02
2022-10-17T15:14:28.694Z,19.25
2022-10-17T15:17:08.289Z,19.21
2022-10-17T15:19:35.548Z,19.25
2022-10-17T15:22:07.900Z,19.06
2022-10-17T15:24:56.848Z,18.98
2022-10-17T15:27:29.429Z,19.21
2022-10-17T15:30:04.966Z,19.26
2022-10-17T15:32:38.080Z,19.27
2022-10-17T15:35:14.214Z,19.21
2022-10-17T15:37:44.032Z,19.50
2022-10-17T15:40:25.871Z,19.12
2022-10-17T15:43:00.771Z,19.48
2022-10-17T15:46:02.131Z,19.57
2022-10-17T15:48:32.135Z,18.93
2022-10-17T15:51:02.291Z,19.35
2022-10-17T15:53:30.797Z,19.60
2022-10-17T15:56:06.275Z,19.05
2022-10-17T15:58:40.915Z,19.30
2022-10-17T16:01:07.990Z,19.37
2022-10-17T16:03:47.161Z,19.10
2022-10-17T16:06:32.397Z,18.94
2022-10-17T16:09:05.604Z,19.38
2022-10-17T16:11:40.024Z,19.09
2022-10-17T16:14:15.928Z,19.05
2022-10-17T16:16:43.387Z,19.12
2022-10-17T16:19:14.053Z,19.35
2022-10-17T16:21:47.534Z,19.12
2022-10-17T16:24:27.591Z,19.03
2022-10-17T16:27:06.715Z,19.12
2022-10-17T16:29:39.371Z,19.10
2022-10-17T16:32:19.904Z,19.28
2022-10-17T16:34:50.312Z,18.97
2022-10-17T16:37:23.486Z,19.04
2022-10-17T16:39:52.746Z,19.19
2022-10-17T16:42:38.879Z,18.95
2022-10-17T16:45:08.155Z,18.64
2022-10-17T16:47:38.211Z,18.88
2022-10-17T16:50:08.400Z,19.27
2022-10-17T16:52:45.329Z,19.18
2022-10-17T16:55:19.962Z,19.00
2022-10-17T16:57:50.091Z,18.99
2022-10-17T17:00:17.740Z,19.23
2022-10-17T17:02:47.631Z,18.88
2022-10-17T17:05:18.654Z,19.05
2022-10-17T17:07:50.997Z,18.86
2022-10-17T17:10:20.731Z,18.93
2022-10-17T17:12:48.704Z,18.84
2022-10-17T17:15:18.424Z,18.98
2022-10-17T17:17:55.754Z,18.66
2022-10-17T17:20:22.963Z,18.67
2022-10-17T17:22:53.351Z,18.93
2022-10-17T17:25:25.900Z,18.95
2022-10-17T17:27:52.836Z,18.91
2022-10-17T17:30:22.615Z,18.87
2022-10-17T17:32:49.948Z,18.69
2022-10-17T17:35:19.611Z,18.49
2022-10-17T17:37:52.233Z,18.54
2022-10-17T17:40:21.832Z,18.77
2022-10-17T17:42:52.990Z,18.82
2022-10-17T17:45:25.342Z,18.59
2022-10-17T17:47:55.346Z,18.73
2022-10-17T17:50:38.430Z,18.40
2022-10-17T17:53:05.915Z,18.90
2022-10-17T17:55:33.008Z,18.89
2022-10-17T17:57:59.782Z,18.89
2022-10-17T18:00:26.691Z,18.82
2022-10-17T18:02:53.217Z,18.88
2022-10-17T18:05:19.908Z,18.89
2022-10-17T18:07:46.389Z,18.90
2022-10-17T18:12:42.199Z,18.88
2022-10-17T18:15:08.821Z,18.81
2022-10-17T18:17:35.343Z,18.84
2022-10-17T18:20:02.730Z,18.91
2022-10-17T18:22:32.621Z,18.91
2022-10-17T18:24:59.511Z,18.89
2022-10-17T18:27:25.856Z,18.90
2022-10-17T18:29:52.353Z,18.86
2022-10-17T18:32:18.974Z,18.92
2022-10-17T18:34:45.437Z,18.88
2022-10-17T18:37:11.793Z,18.92
2022-10-17T18:39:38.538Z,18.84
2022-10-17T18:42:04.906Z,18.93
2022-10-17T18:44:31.290Z,18.85
2022-10-17T18:47:03.008Z,18.91
2022-10-17T18:49:30.762Z,18.90
2022-10-17T18:51:57.133Z,18.87
2022-10-17T18:54:24.377Z,18.78
2022-10-17T18:56:52.331Z,18.80
2022-10-17T18:59:19.920Z,18.70
2022-10-17T19:01:47.121Z,18.56
2022-10-17T19:04:14.056Z,18.49
2022-10-17T19:06:41.005Z,18.44
2022-10-17T19:09:08.865Z,18.32
2022-10-17T19:11:36.415Z,18.14
2022-10-17T19:14:07.927Z,18.15
2022-10-17T19:16:35.983Z,17.98
2022-10-17T19:19:14.375Z,17.90
2022-10-17T19:21:40.919Z,17.86
2022-10-17T19:24:11.424Z,17.73
2022-10-17T19:26:39.673Z,17.65
2022-10-17T19:29:06.614Z,17.61
2022-10-17T19:31:34.671Z,17.64
2022-10-17T19:34:01.160Z,17.39
2022-10-17T19:36:33.354Z,17.47
2022-10-17T19:39:02.015Z,17.41
2022-10-17T19:41:28.563Z,17.36
2022-10-17T19:43:55.202Z,17.31
2022-10-17T19:46:24.466Z,17.34
2022-10-17T19:48:51.723Z,17.28
2022-10-17T19:51:20.247Z,17.26
2022-10-17T19:53:47.400Z,17.21
2022-10-17T19:56:13.864Z,17.14
2022-10-17T19:58:46.584Z,17.16
2022-10-17T20:01:16.804Z,17.10
2022-10-17T20:03:43.890Z,17.08
2022-10-17T20:06:10.591Z,17.06
2022-10-17T20:08:38.487Z,17.03
2022-10-17T20:11:11.561Z,17.01
2022-10-17T20:13:38.371Z,16.96
2022-10-17T20:16:06.599Z,16.94
2022-10-17T20:18:33.141Z,16.91
2022-10-17T20:21:05.471Z,16.87
2022-10-17T20:23:32.336Z,16.85
2022-10-17T20:26:13.620Z,16.91
2022-10-17T20:28:49.733Z,16.88
2022-10-17T20:31:16.537Z,16.89
2022-10-17T20:33:42.966Z,16.82
2022-10-17T20:36:11.784Z,16.87
2022-10-17T20:38:38.459Z,16.86
2022-10-17T20:41:09.889Z,16.86
2022-10-17T20:43:37.304Z,16.86
2022-10-17T20:46:21.890Z,16.86
2022-10-17T20:48:54.273Z,16.86
2022-10-17T20:51:21.373Z,16.90
2022-10-17T20:53:48.787Z,16.91
2022-10-17T20:56:27.839Z,16.90
2022-10-17T20:59:03.224Z,16.93
2022-10-17T21:01:31.758Z,16.96
2022-10-17T21:04:06.058Z,16.96
2022-10-17T21:06:42.611Z,16.91
2022-10-17T21:09:09.222Z,16.94
2022-10-17T21:11:35.616Z,16.94
2022-10-17T21:14:04.893Z,16.95
2022-10-17T21:16:34.080Z,16.84
2022-10-17T21:19:00.908Z,16.92
2022-10-17T21:21:30.588Z,16.90
2022-10-17T21:24:01.264Z,16.86
2022-10-17T21:26:30.778Z,16.84
2022-10-17T21:28:57.706Z,16.75
2022-10-17T21:31:26.599Z,16.83
2022-10-17T21:34:00.623Z,16.78
2022-10-17T21:36:28.160Z,16.81
2022-10-17T21:38:56.404Z,16.80
2022-10-17T21:41:25.621Z,16.67
2022-10-17T21:43:55.302Z,16.77
2022-10-17T21:46:22.257Z,16.70
2022-10-17T21:48:50.414Z,16.73
2022-10-17T21:51:18.845Z,16.67
2022-10-17T21:53:46.123Z,16.73
2022-10-17T21:56:15.857Z,16.71
2022-10-17T21:58:42.770Z,16.70
2022-10-17T22:01:18.006Z,16.69
2022-10-17T22:03:47.030Z,16.68
2022-10-17T22:09:23.402Z,16.71
2022-10-17T22:11:53.079Z,16.71
2022-10-17T22:14:21.337Z,16.71
2022-10-17T22:16:48.926Z,16.72
2022-10-17T22:19:18.817Z,16.74
2022-10-17T22:21:45.375Z,16.66
2022-10-17T22:24:14.322Z,16.77
2022-10-17T22:26:41.674Z,16.80
2022-10-17T22:29:08.828Z,16.78
2022-10-17T22:31:36.321Z,16.85
2022-10-17T22:34:05.258Z,16.84
2022-10-17T22:36:32.605Z,16.87
2022-10-17T22:39:02.122Z,16.84
2022-10-17T22:41:28.486Z,16.86
2022-10-17T22:43:54.844Z,16.85
2022-10-17T22:46:21.347Z,16.75
2022-10-17T22:48:47.797Z,16.83
2022-10-17T22:51:14.911Z,16.76
2022-10-17T22:53:41.694Z,16.78
2022-10-17T22:56:18.406Z,16.79
2022-10-17T22:58:45.384Z,16.76
2022-10-17T23:01:18.712Z,16.77
2022-10-17T23:03:45.236Z,16.74
2022-10-17T23:06:12.645Z,16.74
2022-10-17T23:08:39.567Z,16.72
2022-10-17T23:11:06.915Z,16.67
2022-10-17T23:13:33.525Z,16.71
2022-10-17T23:15:59.883Z,16.69
2022-10-17T23:18:27.012Z,16.76
2022-10-17T23:20:53.989Z,16.70
2022-10-17T23:23:21.255Z,16.75
2022-10-17T23:25:48.003Z,16.69
2022-10-17T23:28:14.680Z,16.74
2022-10-17T23:30:41.148Z,16.73
2022-10-17T23:33:09.299Z,16.69
2022-10-17T23:35:36.079Z,16.67
2022-10-17T23:38:02.859Z,16.65
2022-10-17T23:40:29.920Z,16.67
2022-10-17T23:42:56.285Z,16.64
2022-10-17T23:45:22.686Z,16.53
2022-10-17T23:47:49.103Z,16.61
2022-10-17T23:50:16.332Z,16.57
2022-10-17T23:52:42.738Z,16.62
2022-10-17T23:55:09.677Z,16.55
2022-10-17T23:57:36.085Z,16.59
